Main page
METAR-TAF:

METAR-TAF

Airports :

Albertus Airport

Freeport, Illinois, United States

latitude: 42-14-47N, longitude: 089-34-56W, elevation: 859 ft

Current weather observation

The report was made 23 minutes ago, at 20:15 UTC
Wind 7 mph from the East/Southeast
Temperature 54°F
Humidity 44%
Pressure 30.05 in. Hg
Visibility: 10 miles
Scattered clouds at a height of 4800 ft
Scattered clouds at a height of 10000 ft

METAR: KFEP 012015Z AUTO 12006KT 10SM SCT048 SCT100 12/00 A3005 RMK AO2 T01230001

Time: 15:38 (20:38 UTC)


TAF: missing

Weather observations and forecasts of more than 4000 airports (METAR and TAF reports).

The available stations are represented by yellow and red dots on the map.

Hover mouse over dot to see the name of the station.

Then click to see weather observations and forecasts.

To change the map : click on the green buttons with a black cross to zoom in, on the green button with a dash to zoom out, or on the green arrows for adjacent maps.


METAR-TAF: